createdAt,value
2018-11-20T00:01:18.250Z,81.20
2018-11-20T00:03:58.979Z,81.10
2018-11-20T00:06:53.316Z,81.80
2018-11-20T00:09:41.649Z,81.50
2018-11-20T00:12:32.927Z,81.50
2018-11-20T00:15:08.189Z,81.40
2018-11-20T00:17:59.070Z,81.00
2018-11-20T00:20:56.451Z,81.20
2018-11-20T00:23:43.272Z,81.50
2018-11-20T00:26:26.304Z,81.80
2018-11-20T00:29:23.419Z,81.50
2018-11-20T00:32:11.707Z,81.60
2018-11-20T00:34:59.629Z,81.10
2018-11-20T00:37:46.676Z,81.50
2018-11-20T00:40:50.106Z,81.20
2018-11-20T00:43:34.101Z,81.30
2018-11-20T00:46:30.994Z,81.40
2018-11-20T00:49:28.339Z,81.20
2018-11-20T00:52:35.109Z,81.20
2018-11-20T00:55:27.323Z,81.30
2018-11-20T00:58:18.287Z,81.30
2018-11-20T01:01:01.682Z,81.80
2018-11-20T01:03:48.634Z,81.80
2018-11-20T01:06:44.798Z,81.10
2018-11-20T01:09:31.530Z,81.40
2018-11-20T01:12:18.464Z,81.40
2018-11-20T01:15:05.391Z,81.90
2018-11-20T01:17:50.014Z,81.90
2018-11-20T01:20:27.537Z,81.70
2018-11-20T01:23:04.594Z,81.90
2018-11-20T01:26:10.897Z,81.70
2018-11-20T01:28:59.182Z,81.70
2018-11-20T01:31:47.931Z,82.10
2018-11-20T01:34:32.169Z,81.80
2018-11-20T01:37:18.937Z,81.70
2018-11-20T01:40:03.205Z,81.60
2018-11-20T01:43:06.807Z,81.70
2018-11-20T01:45:53.706Z,81.70
2018-11-20T01:48:51.167Z,82.00
2018-11-20T01:51:40.132Z,81.90
2018-11-20T01:54:27.538Z,82.20
2018-11-20T01:57:15.944Z,81.90
2018-11-20T02:00:03.597Z,82.20
2018-11-20T02:02:50.450Z,82.10
2018-11-20T02:05:37.211Z,82.10
2018-11-20T02:08:29.000Z,82.20
2018-11-20T02:11:17.333Z,82.40
2018-11-20T02:14:18.136Z,82.60
2018-11-20T02:17:21.035Z,82.80
2018-11-20T02:20:09.368Z,82.30
2018-11-20T02:23:00.529Z,82.60
2018-11-20T02:25:47.620Z,82.70
2018-11-20T02:28:35.776Z,82.90
2018-11-20T02:31:26.942Z,83.10
2018-11-20T02:34:19.747Z,82.90
2018-11-20T02:37:08.119Z,82.80
2018-11-20T02:39:59.256Z,83.00
2018-11-20T02:42:54.164Z,83.30
2018-11-20T02:45:41.073Z,83.10
2018-11-20T02:48:32.133Z,83.20
2018-11-20T02:51:18.875Z,83.00
2018-11-20T02:54:05.985Z,83.10
2018-11-20T02:56:52.797Z,83.20
2018-11-20T02:59:43.859Z,83.60
2018-11-20T03:02:37.019Z,83.60
2018-11-20T03:05:18.281Z,84.00
2018-11-20T03:08:09.372Z,83.90
2018-11-20T03:10:56.250Z,83.80
2018-11-20T03:13:43.854Z,83.80
2018-11-20T03:16:37.970Z,83.80
2018-11-20T03:19:18.656Z,83.90
2018-11-20T03:22:12.875Z,83.90
2018-11-20T03:24:59.730Z,83.80
2018-11-20T03:27:46.511Z,83.60
2018-11-20T03:31:10.935Z,83.60
2018-11-20T03:34:16.065Z,83.40
2018-11-20T03:37:19.227Z,83.40
2018-11-20T03:40:06.420Z,83.40
2018-11-20T03:42:45.592Z,83.30
2018-11-20T03:45:32.738Z,83.20
2018-11-20T03:48:29.618Z,83.40
2018-11-20T03:51:20.892Z,83.10
2018-11-20T03:54:01.175Z,83.10
2018-11-20T03:56:39.342Z,83.10
2018-11-20T03:59:27.673Z,83.20
2018-11-20T04:02:25.005Z,83.10
2018-11-20T04:05:31.420Z,82.90
2018-11-20T04:08:18.903Z,83.20
2018-11-20T04:11:13.169Z,83.30
2018-11-20T04:14:04.561Z,83.10
2018-11-20T04:16:51.748Z,83.30
2018-11-20T04:19:34.655Z,83.30
2018-11-20T04:22:21.196Z,83.30
2018-11-20T04:25:15.072Z,82.80
2018-11-20T04:28:09.567Z,82.70
2018-11-20T04:31:49.083Z,82.90
2018-11-20T04:34:43.628Z,82.50
2018-11-20T04:37:30.368Z,82.40
2018-11-20T04:40:09.464Z,82.40
2018-11-20T04:43:07.028Z,82.90
2018-11-20T04:45:57.939Z,82.40
2018-11-20T04:48:44.644Z,82.50
2018-11-20T04:51:31.660Z,82.50
2018-11-20T04:54:28.686Z,82.50
2018-11-20T04:57:26.166Z,82.30
2018-11-20T05:00:14.364Z,82.60
2018-11-20T05:03:01.291Z,82.40
2018-11-20T05:05:49.599Z,82.20
2018-11-20T05:08:37.901Z,82.70
2018-11-20T05:11:32.150Z,82.50
2018-11-20T05:14:20.492Z,82.40
2018-11-20T05:17:11.571Z,82.20
2018-11-20T05:19:58.212Z,82.30
2018-11-20T05:22:45.338Z,81.90
2018-11-20T05:25:32.250Z,82.20
2018-11-20T05:28:26.370Z,81.90
2018-11-20T05:31:13.307Z,82.10
2018-11-20T05:33:51.620Z,82.30
2018-11-20T05:36:40.038Z,82.30
2018-11-20T05:39:35.279Z,82.40
2018-11-20T05:42:10.504Z,82.20
2018-11-20T05:45:04.807Z,82.10
2018-11-20T05:48:05.332Z,82.40
2018-11-20T05:50:45.715Z,82.20
2018-11-20T05:53:23.367Z,82.10
2018-11-20T05:56:11.659Z,81.80
2018-11-20T05:58:58.448Z,81.70
2018-11-20T06:01:45.418Z,82.10
2018-11-20T06:04:36.310Z,82.10
2018-11-20T06:07:28.128Z,82.30
2018-11-20T06:10:24.976Z,82.50
2018-11-20T06:13:15.865Z,82.40
2018-11-20T06:16:16.167Z,82.60
2018-11-20T06:19:03.055Z,82.10
2018-11-20T06:21:50.521Z,82.60
2018-11-20T06:24:37.393Z,82.40
2018-11-20T06:27:28.520Z,82.40
2018-11-20T06:30:23.321Z,82.40
2018-11-20T06:33:17.476Z,82.10
2018-11-20T06:36:04.398Z,81.90
2018-11-20T06:39:10.831Z,81.30
2018-11-20T06:41:57.610Z,81.30
2018-11-20T06:44:55.050Z,81.30
2018-11-20T06:47:36.079Z,80.80
2018-11-20T06:50:36.092Z,80.40
2018-11-20T06:53:27.275Z,80.30
2018-11-20T06:56:12.268Z,79.90
2018-11-20T06:59:03.542Z,79.70
2018-11-20T07:02:10.252Z,79.90
2018-11-20T07:05:04.325Z,79.80
2018-11-20T07:07:52.831Z,79.60
2018-11-20T07:10:44.781Z,78.60
2018-11-20T07:13:38.279Z,78.70
2018-11-20T07:16:42.541Z,78.30
2018-11-20T07:19:26.514Z,78.40
2018-11-20T07:22:12.756Z,78.00
2018-11-20T07:25:01.056Z,78.10
2018-11-20T07:27:43.131Z,77.80
2018-11-20T07:30:23.582Z,78.20
2018-11-20T07:33:23.406Z,78.00
2018-11-20T07:36:10.478Z,78.20
2018-11-20T07:39:04.791Z,78.00
2018-11-20T07:42:11.825Z,78.00
2018-11-20T07:45:03.314Z,78.10
2018-11-20T07:47:57.940Z,78.20
2018-11-20T07:50:58.168Z,77.90
2018-11-20T07:53:40.821Z,78.10
2018-11-20T07:56:35.215Z,78.00
2018-11-20T07:59:23.635Z,77.50
2018-11-20T08:02:14.037Z,76.30
2018-11-20T08:04:49.681Z,76.20
2018-11-20T08:07:56.145Z,75.60
2018-11-20T08:10:44.569Z,75.70
2018-11-20T08:13:31.626Z,75.60
2018-11-20T08:16:06.483Z,75.80
2018-11-20T08:19:06.650Z,76.40
2018-11-20T08:21:54.002Z,76.20
2018-11-20T08:24:40.942Z,76.00
2018-11-20T08:27:17.503Z,76.10
2018-11-20T08:30:05.808Z,75.80
2018-11-20T08:33:09.512Z,74.60
2018-11-20T08:36:02.185Z,75.00
2018-11-20T08:39:01.353Z,75.10
2018-11-20T08:41:42.968Z,75.00
2018-11-20T08:44:49.621Z,74.60
2018-11-20T08:47:50.244Z,74.50
2018-11-20T08:50:44.086Z,74.80
2018-11-20T08:53:40.025Z,74.90
2018-11-20T08:56:26.988Z,73.60
2018-11-20T08:59:14.004Z,73.70
2018-11-20T09:01:52.720Z,72.60
2018-11-20T09:04:40.614Z,72.80
2018-11-20T09:07:25.322Z,72.60
2018-11-20T09:10:12.382Z,71.80
2018-11-20T09:13:00.747Z,71.00
2018-11-20T09:15:55.165Z,70.40
2018-11-20T09:18:42.299Z,69.70
2018-11-20T09:21:19.036Z,70.10
2018-11-20T09:24:13.132Z,69.20
2018-11-20T09:27:00.423Z,67.50
2018-11-20T09:29:41.889Z,67.10
2018-11-20T09:32:19.494Z,66.80
2018-11-20T09:35:13.003Z,66.60
2018-11-20T09:37:50.881Z,67.20
2018-11-20T09:41:19.039Z,66.50
2018-11-20T09:45:07.287Z,67.80
2018-11-20T09:47:55.717Z,67.40
2018-11-20T09:50:42.997Z,64.90
2018-11-20T09:53:31.278Z,65.20
2018-11-20T09:56:13.441Z,65.80
2018-11-20T09:59:10.966Z,66.30
2018-11-20T10:02:02.264Z,64.50
2018-11-20T10:04:49.572Z,64.70
2018-11-20T10:07:38.234Z,65.20
2018-11-20T10:10:24.812Z,64.90
2018-11-20T10:13:11.640Z,65.50
2018-11-20T10:16:11.909Z,65.30
2018-11-20T10:19:12.887Z,65.40
2018-11-20T10:21:59.782Z,65.90
2018-11-20T10:24:54.065Z,65.20
2018-11-20T10:27:55.104Z,65.50
2018-11-20T10:30:41.785Z,66.40
2018-11-20T10:33:23.421Z,65.40
2018-11-20T10:36:14.442Z,65.60
2018-11-20T10:39:11.378Z,66.50
2018-11-20T10:42:07.124Z,65.70
2018-11-20T10:44:58.413Z,65.80
2018-11-20T10:47:59.119Z,66.10
2018-11-20T10:50:45.946Z,65.50
2018-11-20T10:53:32.920Z,65.60
2018-11-20T10:56:27.584Z,65.50
2018-11-20T10:59:14.725Z,67.00
2018-11-20T11:02:01.624Z,66.50
2018-11-20T11:04:48.614Z,66.70
2018-11-20T11:07:35.095Z,66.70
2018-11-20T11:10:10.722Z,66.30
2018-11-20T11:12:57.584Z,66.80
2018-11-20T11:16:00.975Z,67.30
2018-11-20T11:18:58.363Z,66.80
2018-11-20T11:21:58.681Z,66.50
2018-11-20T11:24:46.342Z,67.20
2018-11-20T11:27:29.775Z,66.60
2018-11-20T11:30:23.692Z,67.00
2018-11-20T11:33:26.766Z,66.60
2018-11-20T11:36:19.866Z,66.70
2018-11-20T11:39:13.783Z,67.00
2018-11-20T11:42:00.548Z,67.30
2018-11-20T11:44:48.830Z,67.20
2018-11-20T11:47:46.229Z,67.70
2018-11-20T11:50:40.346Z,67.40
2018-11-20T11:53:31.610Z,66.00
2018-11-20T11:56:18.856Z,66.60
2018-11-20T11:59:19.290Z,66.10
2018-11-20T12:04:57.543Z,66.60
2018-11-20T12:07:47.199Z,66.60
2018-11-20T12:10:36.411Z,66.80
2018-11-20T12:13:22.640Z,66.10
2018-11-20T12:16:29.398Z,66.30
2018-11-20T12:19:07.184Z,66.40
2018-11-20T12:21:54.178Z,66.00
2018-11-20T12:24:41.217Z,66.50
2018-11-20T12:27:40.308Z,66.10
2018-11-20T12:30:28.970Z,66.30
2018-11-20T12:33:17.310Z,65.70
2018-11-20T12:36:03.732Z,65.70
2018-11-20T12:38:54.821Z,66.10
2018-11-20T12:41:41.916Z,65.60
2018-11-20T12:44:29.601Z,65.90
2018-11-20T12:47:16.657Z,65.90
2018-11-20T12:50:01.848Z,66.30
2018-11-20T12:53:00.443Z,66.10
2018-11-20T12:55:46.347Z,66.00
2018-11-20T12:58:37.888Z,66.30
2018-11-20T13:01:25.041Z,66.30
2018-11-20T13:04:03.436Z,66.00
2018-11-20T13:06:43.518Z,66.10
2018-11-20T13:09:32.673Z,66.20
2018-11-20T13:12:22.998Z,66.60
2018-11-20T13:15:14.193Z,66.50
2018-11-20T13:18:03.600Z,66.30
2018-11-20T13:20:50.212Z,66.60
2018-11-20T13:23:35.552Z,66.40
2018-11-20T13:26:12.296Z,66.20
2018-11-20T13:28:59.259Z,66.30
2018-11-20T13:32:02.456Z,66.10
2018-11-20T13:34:39.611Z,66.10
2018-11-20T13:37:32.031Z,66.10
2018-11-20T13:40:33.699Z,66.00
2018-11-20T13:43:19.397Z,66.10
2018-11-20T13:46:19.817Z,66.00
2018-11-20T13:49:20.427Z,66.00
2018-11-20T13:52:01.475Z,66.00
2018-11-20T13:54:47.451Z,66.80
2018-11-20T13:57:25.981Z,66.20
2018-11-20T14:00:29.083Z,66.20
2018-11-20T14:03:15.839Z,66.30
2018-11-20T14:06:19.231Z,66.10
2018-11-20T14:09:25.814Z,66.40
2018-11-20T14:12:11.636Z,66.20
2018-11-20T14:15:02.957Z,67.10
2018-11-20T14:18:05.191Z,65.90
2018-11-20T14:20:52.124Z,66.00
2018-11-20T14:23:40.505Z,66.40
2018-11-20T14:26:21.580Z,66.80
2018-11-20T14:29:18.754Z,66.30
2018-11-20T14:32:25.353Z,67.10
2018-11-20T14:35:13.805Z,67.20
2018-11-20T14:38:00.983Z,67.20
2018-11-20T14:40:47.969Z,67.10
2018-11-20T14:43:34.943Z,67.30
2018-11-20T14:46:36.273Z,67.30
2018-11-20T14:49:27.712Z,67.50
2018-11-20T14:52:13.400Z,67.30
2018-11-20T14:55:04.143Z,67.10
2018-11-20T14:57:51.418Z,67.50
2018-11-20T15:00:39.486Z,67.70
2018-11-20T15:03:40.035Z,67.50
2018-11-20T15:06:23.555Z,67.40
2018-11-20T15:09:10.756Z,67.50
2018-11-20T15:11:57.485Z,67.80
2018-11-20T15:14:48.943Z,68.00
2018-11-20T15:17:37.834Z,67.70
2018-11-20T15:20:31.769Z,67.90
2018-11-20T15:23:18.775Z,68.80
2018-11-20T15:25:55.071Z,69.00
2018-11-20T15:28:43.504Z,69.10
2018-11-20T15:31:31.794Z,69.50
2018-11-20T15:34:18.948Z,69.80
2018-11-20T15:37:10.203Z,70.40
2018-11-20T15:39:49.366Z,70.80
2018-11-20T15:42:36.454Z,71.00
2018-11-20T15:45:24.690Z,71.30
2018-11-20T15:48:28.088Z,71.40
2018-11-20T15:51:25.665Z,71.70
2018-11-20T15:54:17.009Z,71.80
2018-11-20T15:57:05.350Z,72.30
2018-11-20T15:59:56.116Z,72.30
2018-11-20T16:02:58.175Z,72.60
2018-11-20T16:05:46.423Z,72.70
2018-11-20T16:08:38.174Z,73.10
2018-11-20T16:11:29.635Z,73.60
2018-11-20T16:14:18.166Z,73.60
2018-11-20T16:16:57.389Z,74.10
2018-11-20T16:19:44.552Z,74.30
2018-11-20T16:22:31.432Z,74.20
2018-11-20T16:25:19.813Z,74.60
2018-11-20T16:28:20.369Z,74.70
2018-11-20T16:31:00.434Z,75.30
2018-11-20T16:33:47.247Z,75.40
2018-11-20T16:36:26.032Z,75.50
2018-11-20T16:39:20.904Z,75.50
2018-11-20T16:42:27.387Z,75.60
2018-11-20T16:45:14.114Z,75.80
2018-11-20T16:48:03.915Z,76.00
2018-11-20T16:50:51.226Z,76.10
2018-11-20T16:53:39.642Z,75.80
2018-11-20T16:56:40.019Z,75.80
2018-11-20T16:59:26.226Z,75.80
2018-11-20T17:02:24.085Z,75.80
2018-11-20T17:05:11.570Z,76.20
2018-11-20T17:08:02.972Z,76.40
2018-11-20T17:10:43.097Z,76.30
2018-11-20T17:13:29.762Z,76.50
2018-11-20T17:16:18.273Z,76.70
2018-11-20T17:19:05.424Z,76.90
2018-11-20T17:21:59.514Z,77.20
2018-11-20T17:24:46.823Z,77.20
2018-11-20T17:27:37.933Z,77.20
2018-11-20T17:30:38.974Z,77.20
2018-11-20T17:33:45.852Z,77.20
2018-11-20T17:36:43.636Z,77.10
2018-11-20T17:39:31.417Z,77.20
2018-11-20T17:42:34.992Z,77.30
2018-11-20T17:45:22.909Z,77.30
2018-11-20T17:48:09.698Z,77.40
2018-11-20T17:50:58.023Z,77.50
2018-11-20T17:54:04.259Z,77.60
2018-11-20T17:56:54.162Z,77.70
2018-11-20T17:59:39.389Z,78.40
2018-11-20T18:02:22.980Z,77.90
2018-11-20T18:05:10.106Z,78.00
2018-11-20T18:07:57.679Z,78.00
2018-11-20T18:10:44.762Z,77.90
2018-11-20T18:13:45.325Z,78.00
2018-11-20T18:16:32.990Z,78.00
2018-11-20T18:19:21.408Z,78.10
2018-11-20T18:22:08.314Z,78.20
2018-11-20T18:25:05.758Z,78.30
2018-11-20T18:27:53.342Z,78.50
2018-11-20T18:30:44.899Z,78.60
2018-11-20T18:33:32.167Z,78.80
2018-11-20T18:36:23.323Z,79.00
2018-11-20T18:39:26.942Z,78.90
2018-11-20T18:42:30.640Z,79.10
2018-11-20T18:45:12.526Z,79.20
2018-11-20T18:47:55.667Z,79.30
2018-11-20T18:51:02.002Z,79.40
2018-11-20T18:53:53.107Z,79.50
2018-11-20T18:56:47.435Z,79.50
2018-11-20T18:59:41.265Z,79.60
2018-11-20T19:02:23.643Z,79.70
2018-11-20T19:05:18.042Z,79.70
2018-11-20T19:08:06.654Z,79.90
2018-11-20T19:10:57.658Z,79.90
2018-11-20T19:13:43.326Z,80.00
2018-11-20T19:16:34.274Z,80.00
2018-11-20T19:19:38.084Z,80.10
2018-11-20T19:22:26.740Z,80.20
2018-11-20T19:25:29.526Z,80.20
2018-11-20T19:28:13.173Z,80.90
2018-11-20T19:31:53.209Z,80.90
2018-11-20T19:34:45.453Z,80.80
2018-11-20T19:37:36.257Z,80.90
2018-11-20T19:40:32.028Z,81.30
2018-11-20T19:43:33.385Z,81.30
2018-11-20T19:46:25.360Z,81.30
2018-11-20T19:49:16.082Z,81.40
2018-11-20T19:52:02.574Z,81.30
2018-11-20T19:54:49.524Z,81.20
2018-11-20T19:57:36.797Z,81.40
2018-11-20T20:00:44.258Z,81.30
2018-11-20T20:03:31.172Z,81.30
2018-11-20T20:06:14.344Z,81.40
2018-11-20T20:09:08.931Z,81.50
2018-11-20T20:11:58.468Z,81.70
2018-11-20T20:14:49.842Z,81.70
2018-11-20T20:17:54.605Z,81.80
2018-11-20T20:20:47.868Z,81.80
2018-11-20T20:23:35.799Z,81.70
2018-11-20T20:26:20.291Z,81.80
2018-11-20T20:29:18.536Z,81.70
2018-11-20T20:32:13.890Z,81.70
2018-11-20T20:35:01.732Z,81.80
2018-11-20T20:38:03.003Z,82.10
2018-11-20T20:41:01.000Z,82.20
2018-11-20T20:44:02.042Z,82.20
2018-11-20T20:47:00.062Z,82.40
2018-11-20T20:49:48.187Z,82.30
2018-11-20T20:52:37.287Z,82.40
2018-11-20T20:55:25.461Z,82.60
2018-11-20T20:58:15.186Z,82.50
2018-11-20T21:01:02.725Z,82.70
2018-11-20T21:03:58.470Z,82.50
2018-11-20T21:06:43.377Z,82.60
2018-11-20T21:12:45.071Z,82.60
2018-11-20T21:15:33.805Z,82.60
2018-11-20T21:18:26.049Z,82.70
2018-11-20T21:21:32.242Z,82.70
2018-11-20T21:24:21.723Z,83.50
2018-11-20T21:27:09.270Z,83.30
2018-11-20T21:30:08.656Z,83.60
2018-11-20T21:33:05.011Z,83.70
2018-11-20T21:35:51.633Z,83.70
2018-11-20T21:39:05.080Z,84.30
2018-11-20T21:41:51.741Z,84.30
2018-11-20T21:44:46.238Z,84.50
2018-11-20T21:47:51.511Z,84.70
2018-11-20T21:50:39.038Z,84.70
2018-11-20T21:53:38.109Z,84.80
2018-11-20T21:56:31.402Z,84.80
2018-11-20T21:59:20.160Z,86.00
2018-11-20T22:02:08.591Z,85.50
2018-11-20T22:05:02.426Z,85.40
2018-11-20T22:07:52.607Z,85.40
2018-11-20T22:10:48.926Z,85.30
2018-11-20T22:13:54.022Z,85.30
2018-11-20T22:16:59.778Z,85.70
2018-11-20T22:19:45.882Z,85.40
2018-11-20T22:22:31.849Z,85.50
2018-11-20T22:25:17.520Z,85.20
2018-11-20T22:28:22.813Z,85.30
2018-11-20T22:31:21.542Z,85.20
2018-11-20T22:34:20.959Z,85.10
2018-11-20T22:37:23.239Z,85.30
2018-11-20T22:40:25.505Z,85.20
2018-11-20T22:43:30.954Z,85.30
2018-11-20T22:46:18.150Z,85.10
2018-11-20T22:49:17.479Z,85.00
2018-11-20T22:52:23.108Z,84.70
2018-11-20T22:55:28.426Z,84.80
2018-11-20T22:58:21.509Z,85.20
2018-11-20T23:01:08.712Z,85.20
2018-11-20T23:03:51.619Z,85.30
2018-11-20T23:06:28.748Z,85.30
2018-11-20T23:08:56.310Z,85.30
2018-11-20T23:11:23.843Z,85.20
2018-11-20T23:13:51.451Z,85.20
2018-11-20T23:16:19.006Z,85.30
2018-11-20T23:18:46.639Z,85.20
2018-11-20T23:21:14.228Z,85.20
2018-11-20T23:23:41.751Z,85.30
2018-11-20T23:26:09.325Z,85.20
2018-11-20T23:28:37.193Z,85.40
2018-11-20T23:31:04.828Z,85.40
2018-11-20T23:33:32.334Z,85.30
2018-11-20T23:35:59.916Z,85.30
2018-11-20T23:38:27.483Z,85.40
2018-11-20T23:40:55.112Z,85.30
2018-11-20T23:43:22.650Z,85.10
2018-11-20T23:45:50.230Z,85.50
2018-11-20T23:48:18.126Z,85.20
2018-11-20T23:50:45.660Z,85.30
2018-11-20T23:53:13.189Z,85.30
2018-11-20T23:55:40.820Z,84.90
2018-11-20T23:58:08.366Z,84.80
